createdAt,value
2022-09-17T00:00:34.841Z,97823.13
2022-09-17T00:03:43.391Z,97835.81
2022-09-17T00:06:50.367Z,97837.47
2022-09-17T00:09:59.680Z,97829.91
2022-09-17T00:13:06.793Z,97832.88
2022-09-17T00:16:14.129Z,97835.56
2022-09-17T00:19:24.805Z,97825.41
2022-09-17T00:22:38.190Z,97827.94
2022-09-17T00:25:51.438Z,97831.63
2022-09-17T00:29:02.243Z,97836.25
2022-09-17T00:32:19.959Z,97839.72
2022-09-17T00:35:33.629Z,97838.97
2022-09-17T00:38:43.851Z,97834.06
2022-09-17T00:45:32.690Z,97843.06
2022-09-17T00:48:45.127Z,97834.84
2022-09-17T00:52:08.958Z,97835.19
2022-09-17T00:55:31.562Z,97840.94
2022-09-17T00:58:41.925Z,97824.81
2022-09-17T01:01:51.699Z,97832.59
2022-09-17T01:05:13.688Z,97838.13
2022-09-17T01:08:43.639Z,97842.91
2022-09-17T01:12:08.350Z,97855.31
2022-09-17T01:15:31.902Z,97847.25
2022-09-17T01:19:13.675Z,97851.56
2022-09-17T01:22:32.361Z,97851.41
2022-09-17T01:26:13.505Z,97857.41
2022-09-17T01:29:36.981Z,97863.38
2022-09-17T01:33:23.726Z,97856.13
2022-09-17T01:37:05.068Z,97855.25
2022-09-17T01:40:20.088Z,97851.13
2022-09-17T01:44:00.450Z,97857.78
2022-09-17T01:47:33.409Z,97866.88
2022-09-17T01:55:04.607Z,97864.41
2022-09-17T01:58:16.787Z,97866.44
2022-09-17T02:01:32.322Z,97865.56
2022-09-17T02:04:50.679Z,97872.56
2022-09-17T02:08:20.870Z,97873.69
2022-09-17T02:11:43.851Z,97876.69
2022-09-17T02:14:56.275Z,97878.06
2022-09-17T02:18:07.884Z,97872.63
2022-09-17T02:21:19.982Z,97868.84
2022-09-17T02:24:34.429Z,97872.16
2022-09-17T02:28:03.454Z,97866.78
2022-09-17T02:31:09.291Z,97871.00
2022-09-17T02:34:22.535Z,97867.47
2022-09-17T02:37:34.118Z,97861.81
2022-09-17T02:41:14.384Z,97859.28
2022-09-17T02:44:34.761Z,97861.50
2022-09-17T02:48:13.598Z,97858.50
2022-09-17T02:51:40.139Z,97854.09
2022-09-17T02:54:55.059Z,97853.56
2022-09-17T02:58:30.811Z,97858.72
2022-09-17T03:01:48.311Z,97856.63
2022-09-17T03:05:02.609Z,97855.41
2022-09-17T03:08:14.339Z,97855.91
2022-09-17T03:11:27.525Z,97847.59
2022-09-17T03:14:36.890Z,97847.75
2022-09-17T03:17:44.521Z,97857.16
2022-09-17T03:20:57.233Z,97848.41
2022-09-17T03:24:18.449Z,97859.16
2022-09-17T03:27:34.778Z,97855.41
2022-09-17T03:30:43.425Z,97860.69
2022-09-17T03:33:50.687Z,97854.59
2022-09-17T03:37:18.447Z,97859.16
2022-09-17T03:40:37.180Z,97867.06
2022-09-17T03:43:50.323Z,97865.75
2022-09-17T03:47:03.011Z,97864.66
2022-09-17T03:50:13.543Z,97872.22
2022-09-17T03:53:37.622Z,97879.44
2022-09-17T03:56:47.118Z,97875.22
2022-09-17T04:00:08.455Z,97882.47
2022-09-17T04:03:20.971Z,97888.97
2022-09-17T04:06:30.412Z,97894.13
2022-09-17T04:09:49.180Z,97884.50
2022-09-17T04:16:35.179Z,97890.00
2022-09-17T04:19:55.076Z,97885.97
2022-09-17T04:23:03.144Z,97882.97
2022-09-17T04:26:11.484Z,97888.03
2022-09-17T04:29:18.512Z,97887.84
2022-09-17T04:32:26.143Z,97893.72
2022-09-17T04:35:36.503Z,97893.78
2022-09-17T04:38:42.313Z,97894.84
2022-09-17T04:42:00.887Z,97906.41
2022-09-17T04:45:13.377Z,97910.94
2022-09-17T04:48:21.258Z,97917.84
2022-09-17T04:51:31.803Z,97920.28
2022-09-17T04:54:36.598Z,97917.94
2022-09-17T04:57:56.746Z,97913.19
2022-09-17T05:01:18.926Z,97913.38
2022-09-17T05:04:30.786Z,97921.69
2022-09-17T05:07:44.224Z,97927.59
2022-09-17T05:10:50.686Z,97926.81
2022-09-17T05:13:58.155Z,97922.22
2022-09-17T05:17:04.390Z,97919.63
2022-09-17T05:20:11.011Z,97926.31
2022-09-17T05:23:18.863Z,97924.38
2022-09-17T05:26:25.550Z,97919.91
2022-09-17T05:29:31.993Z,97931.47
2022-09-17T05:32:38.789Z,97930.13
2022-09-17T05:35:45.670Z,97920.44
2022-09-17T05:38:54.044Z,97934.44
2022-09-17T05:42:00.767Z,97932.38
2022-09-17T05:45:08.278Z,97936.38
2022-09-17T05:48:17.241Z,97943.03
2022-09-17T05:51:26.366Z,97938.19
2022-09-17T05:54:36.893Z,97939.47
2022-09-17T05:57:44.147Z,97952.16
2022-09-17T06:00:50.395Z,97958.47
2022-09-17T06:03:56.900Z,97951.19
2022-09-17T06:07:02.799Z,97955.13
2022-09-17T06:10:15.870Z,97957.72
2022-09-17T06:13:29.727Z,97965.06
2022-09-17T06:16:38.716Z,97959.38
2022-09-17T06:19:46.911Z,97961.59
2022-09-17T06:22:59.923Z,97953.03
2022-09-17T06:26:11.582Z,97967.25
2022-09-17T06:29:22.051Z,97976.41
2022-09-17T06:32:30.525Z,97976.94
2022-09-17T06:35:53.792Z,97979.09
2022-09-17T06:39:01.878Z,97982.06
2022-09-17T06:42:19.033Z,97981.25
2022-09-17T06:45:34.273Z,97978.34
2022-09-17T06:48:57.867Z,97982.66
2022-09-17T06:52:19.056Z,97989.09
2022-09-17T06:55:35.954Z,97989.25
2022-09-17T06:58:50.876Z,97999.69
2022-09-17T07:02:05.506Z,97994.69
2022-09-17T07:05:55.336Z,97996.75
2022-09-17T07:09:25.879Z,98004.31
2022-09-17T07:12:59.232Z,98010.81
2022-09-17T07:16:31.641Z,98011.44
2022-09-17T07:20:00.574Z,98013.31
2022-09-17T07:23:16.047Z,98024.28
2022-09-17T07:30:10.899Z,98027.66
2022-09-17T07:58:59.159Z,98044.56
2022-09-17T08:02:39.285Z,98046.66
2022-09-17T08:06:34.013Z,98039.66
2022-09-17T08:15:31.408Z,98044.97
2022-09-17T08:19:20.486Z,98051.59
2022-09-17T08:22:38.383Z,98053.41
2022-09-17T08:26:02.713Z,98045.47
2022-09-17T08:29:07.627Z,98050.00
2022-09-17T08:32:10.261Z,98050.88
2022-09-17T08:35:14.574Z,98053.47
2022-09-17T08:38:17.566Z,98055.09
2022-09-17T08:41:28.307Z,98058.03
2022-09-17T08:44:39.724Z,98054.22
2022-09-17T08:47:44.102Z,98050.47
2022-09-17T08:50:48.321Z,98049.63
2022-09-17T08:54:01.858Z,98051.66
2022-09-17T08:57:17.486Z,98048.50
2022-09-17T09:00:22.578Z,98052.94
2022-09-17T09:03:38.906Z,98057.91
2022-09-17T09:06:47.198Z,98058.72
2022-09-17T09:10:00.762Z,98063.19
2022-09-17T09:13:05.463Z,98065.72
2022-09-17T09:16:16.937Z,98063.94
2022-09-17T09:19:23.566Z,98064.84
2022-09-17T09:22:47.486Z,98059.00
2022-09-17T09:25:59.330Z,98058.44
2022-09-17T09:29:07.096Z,98057.44
2022-09-17T09:32:23.881Z,98068.91
2022-09-17T09:35:28.498Z,98063.16
2022-09-17T09:38:36.709Z,98055.78
2022-09-17T09:41:44.566Z,98059.84
2022-09-17T09:44:47.357Z,98064.72
2022-09-17T09:47:59.551Z,98058.88
2022-09-17T09:51:15.838Z,98062.59
2022-09-17T09:54:33.441Z,98058.56
2022-09-17T09:57:46.455Z,98052.97
2022-09-17T10:00:51.212Z,98048.22
2022-09-17T10:03:58.776Z,98060.78
2022-09-17T10:07:08.292Z,98059.75
2022-09-17T10:10:12.841Z,98056.38
2022-09-17T10:13:20.894Z,98055.09
2022-09-17T10:16:32.175Z,98060.97
2022-09-17T10:19:37.838Z,98054.00
2022-09-17T10:22:42.457Z,98045.53
2022-09-17T10:25:46.696Z,98045.44
2022-09-17T10:28:52.199Z,98040.38
2022-09-17T10:31:56.637Z,98039.56
2022-09-17T10:35:04.294Z,98049.16
2022-09-17T10:38:06.998Z,98040.16
2022-09-17T10:41:17.441Z,98037.28
2022-09-17T10:44:24.392Z,98033.34
2022-09-17T10:47:30.250Z,98037.03
2022-09-17T10:50:35.441Z,98031.69
2022-09-17T10:54:06.078Z,98031.56
2022-09-17T10:57:15.107Z,98030.38
2022-09-17T11:00:19.983Z,98019.41
2022-09-17T11:03:50.301Z,98019.00
2022-09-17T11:07:24.505Z,98013.50
2022-09-17T11:10:31.601Z,98012.13
2022-09-17T11:13:46.432Z,98026.22
2022-09-17T11:16:56.852Z,98018.84
2022-09-17T11:20:03.138Z,98013.09
2022-09-17T11:23:26.658Z,98008.31
2022-09-17T11:26:36.652Z,98012.78
2022-09-17T11:30:00.905Z,98003.06
2022-09-17T11:33:25.522Z,97993.38
2022-09-17T11:36:32.837Z,98001.97
2022-09-17T11:39:45.020Z,97995.13
2022-09-17T11:42:53.148Z,97993.69
2022-09-17T11:46:08.630Z,97985.69
2022-09-17T11:49:17.942Z,97992.41
2022-09-17T11:52:23.888Z,97990.31
2022-09-17T11:55:32.630Z,97982.69
2022-09-17T11:58:40.693Z,97995.91
2022-09-17T12:01:51.337Z,97998.47
2022-09-17T12:04:59.833Z,97996.31
2022-09-17T12:08:14.678Z,98001.91
2022-09-17T12:11:21.106Z,97998.13
2022-09-17T12:14:27.911Z,97989.06
2022-09-17T12:17:38.614Z,97986.22
2022-09-17T12:20:46.448Z,98001.31
2022-09-17T12:23:55.107Z,97998.97
2022-09-17T12:27:18.453Z,97993.22
2022-09-17T12:30:25.690Z,97984.56
2022-09-17T12:33:35.516Z,97988.81
2022-09-17T12:36:49.276Z,97987.69
2022-09-17T12:40:12.078Z,97989.69
2022-09-17T12:43:33.221Z,98005.06
2022-09-17T12:46:50.558Z,97996.66
2022-09-17T12:50:12.200Z,97997.50
2022-09-17T12:57:23.023Z,98008.38
2022-09-17T13:00:29.195Z,97999.97
2022-09-17T13:03:36.538Z,98004.41
2022-09-17T13:07:27.171Z,98024.31
2022-09-17T13:10:46.609Z,98019.53
2022-09-17T13:13:53.981Z,98024.22
2022-09-17T13:17:09.929Z,98019.81
2022-09-17T13:20:26.930Z,98018.75
2022-09-17T13:23:51.525Z,98012.88
2022-09-17T13:27:05.635Z,98021.63
2022-09-17T13:30:27.916Z,98014.25
2022-09-17T13:34:07.588Z,98009.69
2022-09-17T13:37:40.362Z,98008.00
2022-09-17T13:44:14.214Z,98008.00
2022-09-17T13:47:30.640Z,97995.06
2022-09-17T13:50:46.105Z,98003.44
2022-09-17T13:53:57.591Z,98000.38
2022-09-17T13:57:14.406Z,97996.59
2022-09-17T14:01:00.756Z,97998.06
2022-09-17T14:04:15.431Z,97990.47
2022-09-17T14:07:37.431Z,97990.06
2022-09-17T14:10:49.700Z,97976.34
2022-09-17T14:13:58.797Z,97986.94
2022-09-17T14:17:07.478Z,97987.50
2022-09-17T14:20:15.383Z,97989.63
2022-09-17T14:23:21.961Z,97980.84
2022-09-17T14:27:01.608Z,97973.81
2022-09-17T14:30:20.267Z,97971.94
2022-09-17T14:33:37.564Z,97980.47
2022-09-17T14:36:49.598Z,97981.09
2022-09-17T14:40:03.825Z,97972.38
2022-09-17T14:43:24.552Z,97976.91
2022-09-17T14:46:34.555Z,97975.06
2022-09-17T14:49:48.702Z,97977.59
2022-09-17T14:52:59.543Z,97992.09
2022-09-17T14:56:14.194Z,97989.44
2022-09-17T14:59:33.164Z,97987.38
2022-09-17T15:02:46.543Z,97987.56
2022-09-17T15:05:55.829Z,97980.09
2022-09-17T15:09:05.268Z,97976.13
2022-09-17T15:12:52.018Z,97978.59
2022-09-17T15:16:08.875Z,97971.63
2022-09-17T15:19:16.795Z,97978.34
2022-09-17T15:22:31.376Z,97972.59
2022-09-17T15:25:41.081Z,97980.53
2022-09-17T15:28:49.862Z,97986.66
2022-09-17T15:32:03.200Z,97980.69
2022-09-17T15:35:26.884Z,97978.06
2022-09-17T15:38:56.165Z,97979.56
2022-09-17T15:42:06.213Z,97988.75
2022-09-17T15:45:22.276Z,97981.84
2022-09-17T15:48:40.671Z,97978.41
2022-09-17T15:51:52.971Z,97977.25
2022-09-17T15:55:03.027Z,97972.91
2022-09-17T15:58:25.082Z,97972.41
2022-09-17T16:01:57.586Z,97976.56
2022-09-17T16:05:37.917Z,97965.81
2022-09-17T16:08:50.758Z,97977.06
2022-09-17T16:12:02.591Z,97987.38
2022-09-17T16:15:13.813Z,97983.84
2022-09-17T16:18:22.196Z,97986.19
2022-09-17T16:21:42.599Z,97992.94
2022-09-17T16:25:05.697Z,97994.63
2022-09-17T16:28:19.081Z,97993.22
2022-09-17T16:31:27.228Z,97999.09
2022-09-17T16:34:36.429Z,98000.31
2022-09-17T16:37:51.145Z,98002.41
2022-09-17T16:41:05.597Z,97996.72
2022-09-17T16:44:14.633Z,97991.88
2022-09-17T16:47:24.173Z,97988.47
2022-09-17T16:50:39.628Z,97994.19
2022-09-17T16:53:53.607Z,97991.88
2022-09-17T16:57:02.558Z,97988.81
2022-09-17T17:00:34.056Z,97994.13
2022-09-17T17:03:41.592Z,98007.50
2022-09-17T17:06:50.934Z,98031.66
2022-09-17T17:10:09.793Z,98032.84
2022-09-17T17:13:21.900Z,98048.94
2022-09-17T17:16:31.512Z,98027.69
2022-09-17T17:19:53.273Z,98023.06
2022-09-17T17:23:01.488Z,98021.72
2022-09-17T17:26:12.974Z,98016.25
2022-09-17T17:29:22.213Z,98033.06
2022-09-17T17:32:49.192Z,98051.00
2022-09-17T17:35:58.955Z,98054.06
2022-09-17T17:39:09.788Z,98053.91
2022-09-17T17:42:24.943Z,98042.91
2022-09-17T17:45:35.049Z,98048.00
2022-09-17T17:48:44.381Z,98045.19
2022-09-17T17:51:54.346Z,98052.09
2022-09-17T17:55:02.611Z,98057.78
2022-09-17T17:58:12.165Z,98060.09
2022-09-17T18:01:20.505Z,98060.41
2022-09-17T18:04:29.598Z,98052.13
2022-09-17T18:07:36.880Z,98047.34
2022-09-17T18:10:43.689Z,98063.00
2022-09-17T18:13:56.001Z,98061.97
2022-09-17T18:17:04.387Z,98068.38
2022-09-17T18:20:16.623Z,98074.91
2022-09-17T18:23:31.929Z,98081.38
2022-09-17T18:26:43.916Z,98077.06
2022-09-17T18:29:50.172Z,98083.03
2022-09-17T18:32:59.202Z,98086.03
2022-09-17T18:36:12.434Z,98086.88
2022-09-17T18:42:57.738Z,98099.06
2022-09-17T18:46:06.309Z,98101.25
2022-09-17T18:49:14.407Z,98100.22
2022-09-17T18:52:25.345Z,98107.47
2022-09-17T18:55:33.357Z,98114.22
2022-09-17T18:58:46.724Z,98108.34
2022-09-17T19:01:55.168Z,98104.72
2022-09-17T19:05:05.592Z,98123.56
2022-09-17T19:08:17.797Z,98129.69
2022-09-17T19:11:28.750Z,98151.97
2022-09-17T19:14:41.479Z,98142.38
2022-09-17T19:17:48.043Z,98147.44
2022-09-17T19:21:05.574Z,98162.84
2022-09-17T19:24:15.323Z,98167.03
2022-09-17T19:27:24.905Z,98164.94
2022-09-17T19:30:36.773Z,98161.72
2022-09-17T19:33:47.559Z,98160.75
2022-09-17T19:37:00.156Z,98168.28
2022-09-17T19:40:22.140Z,98173.41
2022-09-17T19:43:31.574Z,98180.13
2022-09-17T19:46:46.652Z,98188.72
2022-09-17T19:50:00.487Z,98192.47
2022-09-17T19:53:11.233Z,98198.34
2022-09-17T19:56:22.784Z,98210.16
2022-09-17T19:59:31.029Z,98209.84
2022-09-17T20:02:37.276Z,98211.72
2022-09-17T20:06:09.195Z,98212.78
2022-09-17T20:09:28.082Z,98217.63
2022-09-17T20:12:45.530Z,98209.84
2022-09-17T20:15:54.862Z,98216.56
2022-09-17T20:19:10.805Z,98206.91
2022-09-17T20:22:19.869Z,98220.09
2022-09-17T20:25:33.784Z,98218.22
2022-09-17T20:28:47.339Z,98215.28
2022-09-17T20:31:52.136Z,98210.47
2022-09-17T20:34:58.933Z,98207.50
2022-09-17T20:41:33.571Z,98207.81
2022-09-17T20:44:42.505Z,98202.19
2022-09-17T20:47:52.901Z,98207.59
2022-09-17T20:51:01.536Z,98209.97
2022-09-17T20:54:09.941Z,98211.09
2022-09-17T20:57:19.999Z,98245.69
2022-09-17T21:00:29.759Z,98238.13
2022-09-17T21:03:36.755Z,98229.81
2022-09-17T21:06:56.140Z,98234.06
2022-09-17T21:10:02.126Z,98253.09
2022-09-17T21:13:08.610Z,98228.69
2022-09-17T21:16:17.924Z,98231.88
2022-09-17T21:19:32.677Z,98230.78
2022-09-17T21:22:43.065Z,98233.47
2022-09-17T21:25:50.454Z,98233.44
2022-09-17T21:29:02.356Z,98232.06
2022-09-17T21:32:22.039Z,98243.59
2022-09-17T21:35:47.264Z,98249.22
2022-09-17T21:42:39.823Z,98243.59
2022-09-17T21:46:00.095Z,98247.34
2022-09-17T21:49:09.661Z,98247.88
2022-09-17T21:52:24.433Z,98252.44
2022-09-17T21:55:32.236Z,98252.94
2022-09-17T21:58:49.862Z,98248.94
2022-09-17T22:02:06.359Z,98249.97
2022-09-17T22:05:21.448Z,98254.31
2022-09-17T22:08:32.572Z,98249.47
2022-09-17T22:11:45.317Z,98246.53
2022-09-17T22:14:55.335Z,98256.75
2022-09-17T22:18:14.965Z,98252.19
2022-09-17T22:21:31.499Z,98255.44
2022-09-17T22:24:53.536Z,98250.38
2022-09-17T22:28:21.319Z,98244.69
2022-09-17T22:31:29.634Z,98243.66
2022-09-17T22:34:39.608Z,98251.97
2022-09-17T22:37:52.363Z,98245.50
2022-09-17T22:41:01.259Z,98241.75
2022-09-17T22:44:10.672Z,98240.72
2022-09-17T22:47:23.188Z,98240.19
2022-09-17T22:50:29.126Z,98235.34
2022-09-17T22:53:48.199Z,98226.47
2022-09-17T22:56:57.925Z,98239.63
2022-09-17T23:00:04.263Z,98238.28
2022-09-17T23:03:15.363Z,98235.34
2022-09-17T23:06:37.771Z,98231.53
2022-09-17T23:09:55.809Z,98239.84
2022-09-17T23:13:17.100Z,98240.63
2022-09-17T23:16:29.358Z,98247.63
2022-09-17T23:19:40.489Z,98236.34
2022-09-17T23:26:27.941Z,98241.16
2022-09-17T23:29:40.791Z,98236.59
2022-09-17T23:32:59.946Z,98237.13
2022-09-17T23:36:16.078Z,98229.88
2022-09-17T23:39:28.346Z,98241.16
2022-09-17T23:42:42.191Z,98238.22
2022-09-17T23:46:13.083Z,98237.94
2022-09-17T23:49:51.663Z,98241.13
2022-09-17T23:53:06.570Z,98244.84
2022-09-17T23:56:24.155Z,98240.31
2022-09-17T23:59:38.526Z,98246.97
